createdAt,value
2019-03-16T00:02:06.643Z,96802.01
2019-03-16T00:04:36.600Z,96802.63
2019-03-16T00:07:06.618Z,96802.63
2019-03-16T00:09:36.362Z,96802.97
2019-03-16T00:12:06.102Z,96802.97
2019-03-16T00:14:36.510Z,96797.84
2019-03-16T00:17:06.194Z,96797.84
2019-03-16T00:19:35.961Z,96807.84
2019-03-16T00:22:08.008Z,96821.66
2019-03-16T00:24:37.690Z,96821.66
2019-03-16T00:27:07.421Z,96810.03
2019-03-16T00:29:37.291Z,96803.31
2019-03-16T00:32:13.328Z,96803.31
2019-03-16T00:34:38.646Z,96812.61
2019-03-16T00:37:08.416Z,96813.58
2019-03-16T00:39:38.879Z,96811.95
2019-03-16T00:42:08.761Z,96810.09
2019-03-16T00:44:39.572Z,96810.09
2019-03-16T00:47:09.480Z,96826.20
2019-03-16T00:49:39.609Z,96835.27
2019-03-16T00:52:09.968Z,96849.91
2019-03-16T00:54:39.780Z,96849.30
2019-03-16T00:57:09.530Z,96851.39
2019-03-16T00:59:39.262Z,96838.00
2019-03-16T01:02:08.981Z,96844.78
2019-03-16T01:04:38.847Z,96857.52
2019-03-16T01:07:08.692Z,96859.22
2019-03-16T01:09:38.822Z,96858.94
2019-03-16T01:12:09.196Z,96856.59
2019-03-16T01:14:38.943Z,96856.59
2019-03-16T01:17:08.605Z,96866.27
2019-03-16T01:19:38.299Z,96863.75
2019-03-16T01:22:07.839Z,96869.67
2019-03-16T01:24:37.448Z,96865.99
2019-03-16T01:27:07.247Z,96865.99
2019-03-16T01:29:37.037Z,96877.84
2019-03-16T01:32:06.810Z,96884.99
2019-03-16T01:34:37.142Z,96888.25
2019-03-16T01:37:06.765Z,96888.25
2019-03-16T01:39:36.660Z,96893.55
2019-03-16T01:42:06.396Z,96893.55
2019-03-16T01:44:36.132Z,96875.30
2019-03-16T01:47:06.108Z,96875.30
2019-03-16T01:49:35.898Z,96892.72
2019-03-16T01:52:05.762Z,96892.72
2019-03-16T01:54:35.489Z,96889.09
2019-03-16T01:57:05.266Z,96872.79
2019-03-16T01:59:34.996Z,96872.79
2019-03-16T02:02:05.149Z,96875.31
2019-03-16T02:04:35.103Z,96877.23
2019-03-16T02:07:04.908Z,96877.23
2019-03-16T02:09:34.706Z,96879.69
2019-03-16T02:12:05.129Z,96872.75
2019-03-16T02:14:34.978Z,96876.28
2019-03-16T02:17:04.587Z,96876.28
2019-03-16T02:19:35.958Z,96876.28
2019-03-16T02:22:05.962Z,96876.28
2019-03-16T02:24:35.771Z,96870.11
2019-03-16T02:27:06.082Z,96867.95
2019-03-16T02:29:36.099Z,96864.20
2019-03-16T02:32:07.515Z,96848.13
2019-03-16T02:34:37.376Z,96855.97
2019-03-16T02:37:07.258Z,96860.34
2019-03-16T02:39:36.914Z,96848.36
2019-03-16T02:42:07.014Z,96848.36
2019-03-16T02:44:36.913Z,96856.93
2019-03-16T02:47:06.850Z,96858.50
2019-03-16T02:49:36.544Z,96858.50
2019-03-16T02:52:06.231Z,96868.05
2019-03-16T02:54:35.968Z,96873.63
2019-03-16T02:57:06.063Z,96873.64
2019-03-16T02:59:35.800Z,96867.20
2019-03-16T03:02:05.877Z,96868.30
2019-03-16T03:04:35.998Z,96868.30
2019-03-16T03:07:05.645Z,96853.55
2019-03-16T03:09:35.251Z,96869.03
2019-03-16T03:12:04.961Z,96869.03
2019-03-16T03:14:36.703Z,96857.68
2019-03-16T03:17:06.490Z,96855.86
2019-03-16T03:19:36.781Z,96843.54
2019-03-16T03:22:06.638Z,96841.22
2019-03-16T03:24:36.416Z,96849.55
2019-03-16T03:27:06.165Z,96856.08
2019-03-16T03:29:35.842Z,96859.95
2019-03-16T03:32:05.663Z,96864.55
2019-03-16T03:34:35.979Z,96852.48
2019-03-16T03:37:05.790Z,96852.12
2019-03-16T03:39:35.635Z,96842.45
2019-03-16T03:42:05.387Z,96838.59
2019-03-16T03:44:35.047Z,96839.42
2019-03-16T03:47:05.049Z,96839.42
2019-03-16T03:49:35.537Z,96869.13
2019-03-16T03:52:05.387Z,96869.13
2019-03-16T03:54:35.222Z,96866.72
2019-03-16T03:57:04.852Z,96852.11
2019-03-16T03:59:34.445Z,96862.39
2019-03-16T04:02:04.531Z,96864.70
2019-03-16T04:04:34.253Z,96864.70
2019-03-16T04:07:03.890Z,96850.41
2019-03-16T04:09:34.431Z,96855.35
2019-03-16T04:12:04.258Z,96857.16
2019-03-16T04:14:34.047Z,96857.16
2019-03-16T04:17:03.810Z,96850.36
2019-03-16T04:19:33.455Z,96850.36
2019-03-16T04:22:03.296Z,96850.02
2019-03-16T04:24:33.168Z,96847.38
2019-03-16T04:27:15.156Z,96854.50
2019-03-16T04:29:34.189Z,96851.38
2019-03-16T04:32:04.450Z,96852.59
2019-03-16T04:34:34.684Z,96848.69
2019-03-16T04:37:04.314Z,96848.69
2019-03-16T04:39:34.312Z,96844.71
2019-03-16T04:42:04.081Z,96845.31
2019-03-16T04:44:34.150Z,96841.46
2019-03-16T04:47:03.770Z,96834.08
2019-03-16T04:49:33.589Z,96834.08
2019-03-16T04:52:03.713Z,96820.91
2019-03-16T04:54:33.545Z,96820.91
2019-03-16T04:57:03.373Z,96820.44
2019-03-16T04:59:33.249Z,96826.59
2019-03-16T05:02:02.962Z,96826.59
2019-03-16T05:04:42.331Z,96825.96
2019-03-16T05:07:04.560Z,96825.36
2019-03-16T05:09:34.367Z,96817.11
2019-03-16T05:12:04.420Z,96817.11
2019-03-16T05:14:34.794Z,96818.44
2019-03-16T05:17:04.368Z,96818.44
2019-03-16T05:19:34.136Z,96823.25
2019-03-16T05:22:03.957Z,96818.27
2019-03-16T05:24:33.669Z,96818.27
2019-03-16T05:27:03.375Z,96822.41
2019-03-16T05:29:34.077Z,96828.60
2019-03-16T05:32:03.677Z,96825.94
2019-03-16T05:34:33.348Z,96816.36
2019-03-16T05:37:03.186Z,96813.70
2019-03-16T05:39:33.142Z,96820.62
2019-03-16T05:42:05.214Z,96806.08
2019-03-16T05:44:34.759Z,96806.08
2019-03-16T05:47:04.520Z,96807.06
2019-03-16T05:49:34.593Z,96817.47
2019-03-16T05:52:04.514Z,96802.72
2019-03-16T05:54:34.894Z,96802.72
2019-03-16T05:57:04.751Z,96801.45
2019-03-16T05:59:34.675Z,96796.80
2019-03-16T06:02:04.698Z,96803.17
2019-03-16T06:04:34.361Z,96803.02
2019-03-16T06:07:04.402Z,96789.63
2019-03-16T06:09:34.241Z,96789.63
2019-03-16T06:12:04.547Z,96784.00
2019-03-16T06:14:34.390Z,96775.44
2019-03-16T06:17:05.344Z,96784.14
2019-03-16T06:19:35.581Z,96784.09
2019-03-16T06:22:05.548Z,96791.22
2019-03-16T06:24:35.745Z,96791.23
2019-03-16T06:27:05.576Z,96791.23
2019-03-16T06:29:35.260Z,96791.71
2019-03-16T06:32:04.943Z,96791.71
2019-03-16T06:34:36.086Z,96780.80
2019-03-16T06:37:05.865Z,96780.80
2019-03-16T06:39:35.461Z,96784.55
2019-03-16T06:42:05.428Z,96786.75
2019-03-16T06:44:35.102Z,96786.75
2019-03-16T06:47:04.870Z,96784.66
2019-03-16T06:49:36.085Z,96786.96
2019-03-16T06:52:05.821Z,96785.17
2019-03-16T06:54:35.641Z,96785.17
2019-03-16T06:57:05.291Z,96793.25
2019-03-16T06:59:35.193Z,96785.92
2019-03-16T07:02:04.957Z,96785.92
2019-03-16T07:04:35.234Z,96784.51
2019-03-16T07:07:05.133Z,96780.39
2019-03-16T07:09:34.994Z,96777.13
2019-03-16T07:12:04.707Z,96788.94
2019-03-16T07:14:35.093Z,96788.94
2019-03-16T07:17:04.851Z,96780.60
2019-03-16T07:19:34.343Z,96788.45
2019-03-16T07:22:04.554Z,96788.45
2019-03-16T07:24:34.271Z,96792.30
2019-03-16T07:27:03.949Z,96792.30
2019-03-16T07:29:33.815Z,96781.11
2019-03-16T07:32:03.483Z,96784.41
2019-03-16T07:34:33.428Z,96787.91
2019-03-16T07:37:03.386Z,96787.91
2019-03-16T07:39:33.203Z,96772.73
2019-03-16T07:42:02.863Z,96779.80
2019-03-16T07:44:32.847Z,96769.34
2019-03-16T07:47:02.728Z,96769.34
2019-03-16T07:49:32.485Z,96763.02
2019-03-16T07:52:03.635Z,96763.02
2019-03-16T07:54:33.465Z,96767.93
2019-03-16T07:57:03.131Z,96760.09
2019-03-16T07:59:32.869Z,96761.44
2019-03-16T08:02:02.540Z,96764.44
2019-03-16T08:04:32.373Z,96751.91
2019-03-16T08:07:02.345Z,96771.98
2019-03-16T08:09:32.701Z,96761.25
2019-03-16T08:12:02.544Z,96779.34
2019-03-16T08:14:32.351Z,96774.04
2019-03-16T08:17:02.406Z,96782.20
2019-03-16T08:19:32.233Z,96774.81
2019-03-16T08:22:03.659Z,96775.59
2019-03-16T08:24:33.863Z,96769.86
2019-03-16T08:27:03.706Z,96788.20
2019-03-16T08:29:33.348Z,96788.20
2019-03-16T08:32:03.420Z,96788.92
2019-03-16T08:34:33.481Z,96788.92
2019-03-16T08:37:03.744Z,96794.48
2019-03-16T08:39:34.099Z,96796.67
2019-03-16T08:42:03.896Z,96796.95
2019-03-16T08:44:33.849Z,96797.97
2019-03-16T08:47:04.191Z,96797.97
2019-03-16T08:49:33.945Z,96793.85
2019-03-16T08:52:03.863Z,96809.00
2019-03-16T08:54:34.186Z,96790.34
2019-03-16T08:57:04.622Z,96807.35
2019-03-16T08:59:34.591Z,96807.35
2019-03-16T09:02:05.127Z,96805.48
2019-03-16T09:04:35.380Z,96783.90
2019-03-16T09:07:06.408Z,96780.80
2019-03-16T09:09:36.869Z,96780.80
2019-03-16T09:12:06.747Z,96774.33
2019-03-16T09:14:37.042Z,96770.06
2019-03-16T09:17:08.991Z,96766.63
2019-03-16T09:19:38.244Z,96766.63
2019-03-16T09:22:09.093Z,96763.44
2019-03-16T09:24:38.689Z,96763.44
2019-03-16T09:27:09.038Z,96752.00
2019-03-16T09:29:38.984Z,96765.69
2019-03-16T09:32:08.924Z,96757.70
2019-03-16T09:34:38.785Z,96745.11
2019-03-16T09:37:08.741Z,96748.70
2019-03-16T09:39:38.434Z,96757.95
2019-03-16T09:42:08.464Z,96763.52
2019-03-16T09:44:38.293Z,96764.92
2019-03-16T09:47:08.277Z,96764.92
2019-03-16T09:49:41.174Z,96768.36
2019-03-16T09:52:11.684Z,96761.81
2019-03-16T09:54:44.245Z,96758.62
2019-03-16T09:57:18.349Z,96762.11
2019-03-16T09:59:48.139Z,96762.11
2019-03-16T10:02:18.049Z,96757.13
2019-03-16T10:04:47.916Z,96765.71
2019-03-16T10:07:17.455Z,96760.64
2019-03-16T10:09:47.638Z,96752.94
2019-03-16T10:12:17.272Z,96752.94
2019-03-16T10:14:55.591Z,96739.98
2019-03-16T10:17:36.354Z,96739.98
2019-03-16T10:20:06.791Z,96745.19
2019-03-16T10:22:36.953Z,96745.19
2019-03-16T10:25:07.014Z,96742.56
2019-03-16T10:27:36.714Z,96731.27
2019-03-16T10:30:07.763Z,96734.07
2019-03-16T10:32:37.451Z,96725.92
2019-03-16T10:35:08.144Z,96725.86
2019-03-16T10:37:38.193Z,96720.80
2019-03-16T10:40:11.445Z,96718.48
2019-03-16T10:42:41.063Z,96726.06
2019-03-16T10:45:12.457Z,96723.74
2019-03-16T10:47:42.352Z,96723.74
2019-03-16T10:50:12.704Z,96726.41
2019-03-16T10:52:42.355Z,96720.36
2019-03-16T10:55:12.403Z,96717.99
2019-03-16T10:57:42.500Z,96717.99
2019-03-16T11:00:12.680Z,96710.66
2019-03-16T11:02:45.275Z,96700.64
2019-03-16T11:05:15.491Z,96700.64
2019-03-16T11:07:45.023Z,96706.63
2019-03-16T11:10:15.291Z,96703.31
2019-03-16T11:12:45.417Z,96708.61
2019-03-16T11:15:15.494Z,96708.61
2019-03-16T11:17:45.563Z,96686.28
2019-03-16T11:20:15.140Z,96688.94
2019-03-16T11:22:45.181Z,96688.94
2019-03-16T11:25:15.299Z,96692.44
2019-03-16T11:27:45.152Z,96692.44
2019-03-16T11:30:15.516Z,96677.48
2019-03-16T11:32:45.200Z,96690.03
2019-03-16T11:35:14.777Z,96690.03
2019-03-16T11:37:45.012Z,96685.47
2019-03-16T11:40:17.116Z,96685.47
2019-03-16T11:42:47.563Z,96693.84
2019-03-16T11:45:17.631Z,96679.25
2019-03-16T11:47:47.374Z,96679.25
2019-03-16T11:50:17.723Z,96672.21
2019-03-16T11:52:47.389Z,96672.21
2019-03-16T11:55:19.150Z,96696.83
2019-03-16T11:57:48.867Z,96684.91
2019-03-16T12:00:18.505Z,96680.55
2019-03-16T12:02:48.323Z,96684.81
2019-03-16T12:05:18.435Z,96679.35
2019-03-16T12:07:48.665Z,96662.54
2019-03-16T12:10:18.514Z,96664.76
2019-03-16T12:12:48.487Z,96666.66
2019-03-16T12:15:20.489Z,96666.66
2019-03-16T12:17:50.623Z,96672.42
2019-03-16T12:20:21.304Z,96674.78
2019-03-16T12:22:51.212Z,96674.78
2019-03-16T12:25:21.510Z,96684.19
2019-03-16T12:27:51.337Z,96684.02
2019-03-16T12:30:22.185Z,96679.50
2019-03-16T12:32:51.849Z,96690.75
2019-03-16T12:35:22.155Z,96690.09
2019-03-16T12:38:01.034Z,96705.92
2019-03-16T12:40:31.691Z,96705.92
2019-03-16T12:43:03.151Z,96667.69
2019-03-16T12:45:32.986Z,96667.69
2019-03-16T12:48:02.506Z,96666.96
2019-03-16T12:50:33.129Z,96679.92
2019-03-16T12:53:03.000Z,96658.10
2019-03-16T12:55:32.653Z,96662.34
2019-03-16T12:58:06.549Z,96664.22
2019-03-16T13:00:36.319Z,96655.59
2019-03-16T13:03:06.282Z,96662.58
2019-03-16T13:05:50.869Z,96662.58
2019-03-16T13:08:20.970Z,96655.17
2019-03-16T13:10:51.464Z,96650.55
2019-03-16T13:13:22.469Z,96646.81
2019-03-16T13:15:52.521Z,96634.50
2019-03-16T13:18:25.950Z,96642.48
2019-03-16T13:21:00.049Z,96644.25
2019-03-16T13:23:32.652Z,96630.44
2019-03-16T13:26:07.098Z,96630.44
2019-03-16T13:28:39.528Z,96633.20
2019-03-16T13:31:09.659Z,96618.43
2019-03-16T13:33:41.989Z,96631.38
2019-03-16T13:36:11.504Z,96630.11
2019-03-16T13:38:42.786Z,96618.16
2019-03-16T13:41:13.401Z,96618.16
2019-03-16T13:43:43.518Z,96616.83
2019-03-16T13:46:13.262Z,96617.95
2019-03-16T13:48:44.622Z,96620.83
2019-03-16T13:51:15.530Z,96618.97
2019-03-16T13:53:45.317Z,96614.75
2019-03-16T13:56:15.885Z,96614.75
2019-03-16T13:58:47.042Z,96605.47
2019-03-16T14:01:16.591Z,96601.88
2019-03-16T14:03:47.770Z,96595.59
2019-03-16T14:06:18.153Z,96596.67
2019-03-16T14:08:47.873Z,96593.94
2019-03-16T14:11:19.101Z,96593.94
2019-03-16T14:13:49.129Z,96595.73
2019-03-16T14:16:21.116Z,96598.89
2019-03-16T14:18:50.999Z,96598.89
2019-03-16T14:21:21.033Z,96597.88
2019-03-16T14:23:51.001Z,96596.89
2019-03-16T14:26:21.055Z,96577.69
2019-03-16T14:28:50.942Z,96587.85
2019-03-16T14:31:21.088Z,96587.85
2019-03-16T14:33:51.348Z,96586.23
2019-03-16T14:36:21.292Z,96577.13
2019-03-16T14:38:51.201Z,96575.05
2019-03-16T14:41:20.896Z,96571.34
2019-03-16T14:43:52.311Z,96577.48
2019-03-16T14:46:22.148Z,96577.48
2019-03-16T14:48:52.040Z,96575.17
2019-03-16T14:51:24.683Z,96553.16
2019-03-16T14:53:53.697Z,96563.41
2019-03-16T14:56:25.109Z,96564.58
2019-03-16T14:58:56.332Z,96550.75
2019-03-16T15:01:26.498Z,96547.75
2019-03-16T15:03:56.011Z,96543.98
2019-03-16T15:06:26.209Z,96543.98
2019-03-16T15:08:56.032Z,96554.05
2019-03-16T15:11:26.029Z,96537.67
2019-03-16T15:13:56.654Z,96534.23
2019-03-16T15:16:33.743Z,96534.23
2019-03-16T15:19:04.133Z,96534.04
2019-03-16T15:21:34.107Z,96523.41
2019-03-16T15:24:04.945Z,96523.41
2019-03-16T15:26:35.145Z,96523.64
2019-03-16T15:29:12.272Z,96515.56
2019-03-16T15:31:41.959Z,96515.56
2019-03-16T15:34:11.716Z,96520.73
2019-03-16T15:36:41.364Z,96520.73
2019-03-16T15:39:11.815Z,96516.11
2019-03-16T15:41:41.331Z,96513.20
2019-03-16T15:44:11.768Z,96509.48
2019-03-16T15:46:41.631Z,96509.48
2019-03-16T15:49:17.383Z,96501.94
2019-03-16T15:51:47.079Z,96501.94
2019-03-16T15:54:17.171Z,96501.81
2019-03-16T15:56:47.321Z,96506.67
2019-03-16T15:59:17.944Z,96497.55
2019-03-16T16:01:56.452Z,96481.13
2019-03-16T16:04:30.289Z,96481.13
2019-03-16T16:07:00.658Z,96484.94
2019-03-16T16:09:30.267Z,96478.88
2019-03-16T16:12:05.033Z,96476.84
2019-03-16T16:14:34.937Z,96469.34
2019-03-16T16:17:07.233Z,96462.92
2019-03-16T16:19:37.655Z,96451.05
2019-03-16T16:22:07.298Z,96450.47
2019-03-16T16:24:37.160Z,96450.47
2019-03-16T16:27:07.322Z,96449.50
2019-03-16T16:29:37.193Z,96443.73
2019-03-16T16:32:07.044Z,96443.73
2019-03-16T16:34:36.840Z,96448.94
2019-03-16T16:37:07.159Z,96448.94
2019-03-16T16:39:37.324Z,96437.24
2019-03-16T16:42:07.290Z,96437.24
2019-03-16T16:44:37.497Z,96438.95
2019-03-16T16:47:08.030Z,96438.29
2019-03-16T16:49:37.759Z,96437.60
2019-03-16T16:52:07.404Z,96430.22
2019-03-16T16:54:38.056Z,96430.22
2019-03-16T16:57:10.398Z,96434.10
2019-03-16T16:59:40.485Z,96434.34
2019-03-16T17:02:11.493Z,96434.34
2019-03-16T17:04:41.084Z,96435.63
2019-03-16T17:07:11.024Z,96435.63
2019-03-16T17:09:43.078Z,96430.36
2019-03-16T17:12:12.805Z,96427.84
2019-03-16T17:14:42.672Z,96422.24
2019-03-16T17:17:13.225Z,96422.24
2019-03-16T17:19:43.371Z,96431.06
2019-03-16T17:22:13.015Z,96431.06
2019-03-16T17:24:43.090Z,96429.44
2019-03-16T17:27:12.991Z,96436.75
2019-03-16T17:29:44.345Z,96429.44
2019-03-16T17:32:14.046Z,96421.84
2019-03-16T17:34:44.297Z,96429.45
2019-03-16T17:37:14.506Z,96424.77
2019-03-16T17:39:44.930Z,96424.42
2019-03-16T17:42:17.634Z,96422.80
2019-03-16T17:44:51.170Z,96422.80
2019-03-16T17:47:21.432Z,96426.95
2019-03-16T17:49:51.596Z,96417.33
2019-03-16T17:52:21.176Z,96408.69
2019-03-16T17:54:50.877Z,96410.80
2019-03-16T17:57:20.774Z,96410.80
2019-03-16T17:59:50.582Z,96409.27
2019-03-16T18:02:21.051Z,96406.02
2019-03-16T18:04:50.818Z,96404.67
2019-03-16T18:07:21.661Z,96404.67
2019-03-16T18:09:51.452Z,96391.67
2019-03-16T18:12:21.328Z,96398.00
2019-03-16T18:14:51.582Z,96394.55
2019-03-16T18:17:24.145Z,96390.95
2019-03-16T18:19:54.059Z,96386.73
2019-03-16T18:22:23.993Z,96383.98
2019-03-16T18:24:53.773Z,96382.84
2019-03-16T18:27:23.873Z,96392.48
2019-03-16T18:29:53.913Z,96388.13
2019-03-16T18:32:24.033Z,96391.56
2019-03-16T18:34:53.837Z,96389.88
2019-03-16T18:37:26.479Z,96389.26
2019-03-16T18:39:59.231Z,96389.27
2019-03-16T18:42:28.975Z,96389.27
2019-03-16T18:44:58.781Z,96380.58
2019-03-16T18:47:28.722Z,96386.77
2019-03-16T18:49:58.205Z,96378.41
2019-03-16T18:52:28.514Z,96376.58
2019-03-16T18:55:02.155Z,96376.58
2019-03-16T18:57:33.804Z,96367.81
2019-03-16T19:00:03.733Z,96367.81
2019-03-16T19:02:34.234Z,96363.38
2019-03-16T19:05:05.991Z,96363.38
2019-03-16T19:07:36.132Z,96366.68
2019-03-16T19:10:06.349Z,96361.54
2019-03-16T19:12:35.909Z,96361.54
2019-03-16T19:15:05.982Z,96358.67
2019-03-16T19:17:35.962Z,96364.56
2019-03-16T19:20:05.729Z,96364.07
2019-03-16T19:22:35.878Z,96358.23
2019-03-16T19:25:05.847Z,96358.23
2019-03-16T19:27:37.141Z,96347.27
2019-03-16T19:30:08.555Z,96347.27
2019-03-16T19:32:38.345Z,96348.45
2019-03-16T19:35:08.252Z,96345.52
2019-03-16T19:37:38.193Z,96353.59
2019-03-16T19:40:09.682Z,96343.55
2019-03-16T19:42:40.198Z,96346.36
2019-03-16T19:45:11.338Z,96334.27
2019-03-16T19:47:41.544Z,96340.50
2019-03-16T19:50:12.054Z,96334.27
2019-03-16T19:52:42.920Z,96333.34
2019-03-16T19:55:12.768Z,96338.55
2019-03-16T19:57:42.923Z,96338.55
2019-03-16T20:00:13.592Z,96325.83
2019-03-16T20:02:51.567Z,96323.30
2019-03-16T20:05:17.657Z,96323.30
2019-03-16T20:07:47.391Z,96308.21
2019-03-16T20:10:17.179Z,96316.28
2019-03-16T20:12:47.142Z,96317.75
2019-03-16T20:15:17.538Z,96314.36
2019-03-16T20:17:47.455Z,96312.27
2019-03-16T20:20:17.003Z,96311.34
2019-03-16T20:22:46.648Z,96311.34
2019-03-16T20:25:17.139Z,96299.97
2019-03-16T20:27:52.616Z,96299.97
2019-03-16T20:30:45.831Z,96301.30
2019-03-16T20:33:22.235Z,96301.72
2019-03-16T20:35:52.092Z,96302.90
2019-03-16T20:38:22.566Z,96302.90
2019-03-16T20:40:52.644Z,96289.47
2019-03-16T20:43:22.809Z,96280.02
2019-03-16T20:45:55.959Z,96280.02
2019-03-16T20:48:25.736Z,96275.52
2019-03-16T20:50:55.305Z,96277.64
2019-03-16T20:53:25.089Z,96280.63
2019-03-16T20:55:57.962Z,96274.83
2019-03-16T20:58:28.427Z,96271.37
2019-03-16T21:00:58.621Z,96270.16
2019-03-16T21:03:33.806Z,96270.16
2019-03-16T21:06:12.353Z,96268.18
2019-03-16T21:09:04.003Z,96258.64
2019-03-16T21:11:33.601Z,96256.61
2019-03-16T21:14:03.431Z,96256.61
2019-03-16T21:16:33.473Z,96260.38
2019-03-16T21:19:04.049Z,96254.70
2019-03-16T21:21:35.772Z,96236.37
2019-03-16T21:24:07.550Z,96244.51
2019-03-16T21:26:37.353Z,96244.52
2019-03-16T21:29:11.608Z,96244.52
2019-03-16T21:31:42.247Z,96243.23
2019-03-16T21:34:12.347Z,96243.23
2019-03-16T21:36:42.326Z,96232.95
2019-03-16T21:39:12.025Z,96232.86
2019-03-16T21:41:44.285Z,96232.52
2019-03-16T21:44:13.672Z,96231.17
2019-03-16T21:46:43.972Z,96231.17
2019-03-16T21:49:14.122Z,96227.75
2019-03-16T21:51:50.355Z,96230.05
2019-03-16T21:54:22.625Z,96231.52
2019-03-16T21:57:01.186Z,96224.59
2019-03-16T21:59:30.934Z,96224.59
2019-03-16T22:02:01.677Z,96205.11
2019-03-16T22:04:35.710Z,96205.11
2019-03-16T22:07:05.926Z,96206.53
2019-03-16T22:09:36.428Z,96200.51
2019-03-16T22:12:06.191Z,96192.02
2019-03-16T22:14:38.154Z,96192.02
2019-03-16T22:17:08.269Z,96184.51
2019-03-16T22:19:38.069Z,96177.55
2019-03-16T22:22:08.027Z,96175.28
2019-03-16T22:24:37.695Z,96175.28
2019-03-16T22:27:07.481Z,96166.59
2019-03-16T22:29:37.319Z,96171.08
2019-03-16T22:32:07.520Z,96161.95
2019-03-16T22:34:37.531Z,96156.56
2019-03-16T22:37:07.773Z,96147.86
2019-03-16T22:39:37.870Z,96147.86
2019-03-16T22:42:08.916Z,96142.61
2019-03-16T22:44:39.097Z,96142.61
2019-03-16T22:47:09.963Z,96137.34
2019-03-16T22:49:39.804Z,96141.08
2019-03-16T22:52:09.724Z,96127.39
2019-03-16T22:54:39.959Z,96120.78
2019-03-16T22:57:09.931Z,96130.23
2019-03-16T22:59:40.068Z,96130.23
2019-03-16T23:02:10.392Z,96123.79
2019-03-16T23:04:40.316Z,96128.61
2019-03-16T23:07:10.094Z,96108.28
2019-03-16T23:09:39.975Z,96110.30
2019-03-16T23:12:09.736Z,96100.92
2019-03-16T23:14:39.871Z,96100.92
2019-03-16T23:17:10.556Z,96099.70
2019-03-16T23:19:40.092Z,96099.70
2019-03-16T23:22:10.003Z,96095.02
2019-03-16T23:24:39.754Z,96086.99
2019-03-16T23:27:10.034Z,96081.33
2019-03-16T23:29:40.215Z,96070.46
2019-03-16T23:32:09.996Z,96070.46
2019-03-16T23:34:39.670Z,96071.13
2019-03-16T23:37:10.104Z,96068.25
2019-03-16T23:39:40.329Z,96064.03
2019-03-16T23:42:10.620Z,96052.59
2019-03-16T23:44:40.757Z,96052.59
2019-03-16T23:47:10.657Z,96060.73
2019-03-16T23:49:40.656Z,96054.91
2019-03-16T23:52:10.757Z,96054.91
2019-03-16T23:54:41.058Z,96052.44
2019-03-16T23:57:10.966Z,96046.06
2019-03-16T23:59:40.645Z,96041.62
